Main page
METAR-TAF:

METAR-TAF

Airports :

Pecos Municipal Airport

Pecos, Texas, United States

latitude: 31-22-56N, longitude: 103-30-38W, elevation: 2611 ft

Current weather observation

The report was made 24 minutes ago, at 02:35 UTC
Wind 7 mph from the South
Temperature 43°F
Humidity 52%
Pressure 30.32 in. Hg
Visibility: 10 miles
Clear sky

METAR: KPEQ 150235Z AUTO 19006KT 10SM CLR 06/M03 A3032 RMK AO2 T00591028

Time: 20:59 (02:59 UTC)

Forecast

The report was made 3 hours and 39 minutes ago, at 23:20 UTC
Forecast valid from 15 at 00 UTC to 15 at 24 UTC
Wind 6 mph from the Southwest
Visibility: 6 miles
Clear sky

TAF: KPEQ 142320Z 1500/1524 23005KT P6SM SKC

Weather observations and forecasts of more than 4000 airports (METAR and TAF reports).

The available stations are represented by yellow and red dots on the map.

Hover mouse over dot to see the name of the station.

Then click to see weather observations and forecasts.

To change the map : click on the green buttons with a black cross to zoom in, on the green button with a dash to zoom out, or on the green arrows for adjacent maps.


METAR-TAF: